sensor_id;sensor_type;location;lat;lon;timestamp;P1;durP1;ratioP1;P2;durP2;ratioP2
7899;SDS011;3995;50.856;4.404;2023-03-05T00:00:46;3.85;;;1.85;;
7899;SDS011;3995;50.856;4.404;2023-03-05T00:03:16;3.22;;;1.80;;
7899;SDS011;3995;50.856;4.404;2023-03-05T00:05:43;6.10;;;2.05;;
7899;SDS011;3995;50.856;4.404;2023-03-05T00:08:10;7.30;;;1.90;;
7899;SDS011;3995;50.856;4.404;2023-03-05T00:10:39;4.90;;;1.85;;
7899;SDS011;3995;50.856;4.404;2023-03-05T00:13:05;5.78;;;2.22;;
7899;SDS011;3995;50.856;4.404;2023-03-05T00:15:32;4.30;;;1.90;;
7899;SDS011;3995;50.856;4.404;2023-03-05T00:18:05;5.32;;;2.25;;
7899;SDS011;3995;50.856;4.404;2023-03-05T00:20:33;4.45;;;2.25;;
7899;SDS011;3995;50.856;4.404;2023-03-05T00:23:00;2.92;;;1.88;;
7899;SDS011;3995;50.856;4.404;2023-03-05T00:25:28;4.75;;;1.75;;
7899;SDS011;3995;50.856;4.404;2023-03-05T00:27:56;6.38;;;2.00;;
7899;SDS011;3995;50.856;4.404;2023-03-05T00:30:24;4.25;;;2.25;;
7899;SDS011;3995;50.856;4.404;2023-03-05T00:32:51;2.90;;;1.70;;
7899;SDS011;3995;50.856;4.404;2023-03-05T00:35:18;5.68;;;2.28;;
7899;SDS011;3995;50.856;4.404;2023-03-05T00:37:45;5.63;;;2.35;;
7899;SDS011;3995;50.856;4.404;2023-03-05T00:40:13;11.43;;;2.80;;
7899;SDS011;3995;50.856;4.404;2023-03-05T00:42:40;5.75;;;2.70;;
7899;SDS011;3995;50.856;4.404;2023-03-05T00:45:09;5.97;;;2.38;;
7899;SDS011;3995;50.856;4.404;2023-03-05T00:47:37;3.13;;;2.70;;
7899;SDS011;3995;50.856;4.404;2023-03-05T00:50:05;3.53;;;2.35;;
7899;SDS011;3995;50.856;4.404;2023-03-05T00:52:33;6.35;;;2.40;;
7899;SDS011;3995;50.856;4.404;2023-03-05T00:55:00;5.82;;;3.03;;
7899;SDS011;3995;50.856;4.404;2023-03-05T00:57:28;3.80;;;2.30;;
7899;SDS011;3995;50.856;4.404;2023-03-05T00:59:55;4.53;;;2.50;;
7899;SDS011;3995;50.856;4.404;2023-03-05T01:02:24;6.65;;;2.95;;
7899;SDS011;3995;50.856;4.404;2023-03-05T01:04:51;3.83;;;2.67;;
7899;SDS011;3995;50.856;4.404;2023-03-05T01:07:18;5.53;;;2.92;;
7899;SDS011;3995;50.856;4.404;2023-03-05T01:09:46;3.75;;;2.67;;
7899;SDS011;3995;50.856;4.404;2023-03-05T01:12:13;5.43;;;2.20;;
7899;SDS011;3995;50.856;4.404;2023-03-05T01:14:40;4.85;;;3.00;;
7899;SDS011;3995;50.856;4.404;2023-03-05T01:17:07;5.28;;;3.10;;
7899;SDS011;3995;50.856;4.404;2023-03-05T01:19:36;4.82;;;2.50;;
7899;SDS011;3995;50.856;4.404;2023-03-05T01:22:03;4.43;;;2.72;;
7899;SDS011;3995;50.856;4.404;2023-03-05T01:24:31;4.00;;;2.60;;
7899;SDS011;3995;50.856;4.404;2023-03-05T01:26:58;4.38;;;2.83;;
7899;SDS011;3995;50.856;4.404;2023-03-05T01:29:25;4.70;;;3.15;;
7899;SDS011;3995;50.856;4.404;2023-03-05T01:31:53;3.92;;;2.60;;
7899;SDS011;3995;50.856;4.404;2023-03-05T01:34:20;4.25;;;2.80;;
7899;SDS011;3995;50.856;4.404;2023-03-05T01:36:48;6.28;;;2.95;;
7899;SDS011;3995;50.856;4.404;2023-03-05T01:39:16;4.80;;;2.78;;
7899;SDS011;3995;50.856;4.404;2023-03-05T01:41:43;6.57;;;2.92;;
7899;SDS011;3995;50.856;4.404;2023-03-05T01:44:16;6.85;;;2.83;;
7899;SDS011;3995;50.856;4.404;2023-03-05T01:46:47;4.75;;;2.80;;
7899;SDS011;3995;50.856;4.404;2023-03-05T01:49:16;6.82;;;3.40;;
7899;SDS011;3995;50.856;4.404;2023-03-05T01:51:56;4.32;;;2.63;;
7899;SDS011;3995;50.856;4.404;2023-03-05T01:54:29;4.90;;;2.97;;
7899;SDS011;3995;50.856;4.404;2023-03-05T01:56:59;5.00;;;2.85;;
7899;SDS011;3995;50.856;4.404;2023-03-05T01:59:32;5.05;;;2.90;;
7899;SDS011;3995;50.856;4.404;2023-03-05T02:02:01;6.82;;;2.83;;
7899;SDS011;3995;50.856;4.404;2023-03-05T02:04:29;2.85;;;2.20;;
7899;SDS011;3995;50.856;4.404;2023-03-05T02:07:01;4.10;;;2.72;;
7899;SDS011;3995;50.856;4.404;2023-03-05T02:09:28;4.00;;;2.67;;
7899;SDS011;3995;50.856;4.404;2023-03-05T02:11:56;5.63;;;2.80;;
7899;SDS011;3995;50.856;4.404;2023-03-05T02:14:24;3.10;;;2.40;;
7899;SDS011;3995;50.856;4.404;2023-03-05T02:16:52;4.20;;;2.30;;
7899;SDS011;3995;50.856;4.404;2023-03-05T02:19:19;6.88;;;2.95;;
7899;SDS011;3995;50.856;4.404;2023-03-05T02:21:48;5.80;;;2.55;;
7899;SDS011;3995;50.856;4.404;2023-03-05T02:24:16;5.00;;;2.35;;
7899;SDS011;3995;50.856;4.404;2023-03-05T02:26:45;4.18;;;2.25;;
7899;SDS011;3995;50.856;4.404;2023-03-05T02:29:13;7.03;;;3.17;;
7899;SDS011;3995;50.856;4.404;2023-03-05T02:31:44;5.38;;;2.55;;
7899;SDS011;3995;50.856;4.404;2023-03-05T02:34:12;4.25;;;2.38;;
7899;SDS011;3995;50.856;4.404;2023-03-05T02:36:39;3.53;;;2.53;;
7899;SDS011;3995;50.856;4.404;2023-03-05T02:39:09;6.30;;;2.85;;
7899;SDS011;3995;50.856;4.404;2023-03-05T02:41:36;6.53;;;3.10;;
7899;SDS011;3995;50.856;4.404;2023-03-05T02:44:03;5.25;;;2.80;;
7899;SDS011;3995;50.856;4.404;2023-03-05T02:46:31;5.57;;;3.15;;
7899;SDS011;3995;50.856;4.404;2023-03-05T02:48:58;4.53;;;3.00;;
7899;SDS011;3995;50.856;4.404;2023-03-05T02:51:25;5.32;;;3.15;;
7899;SDS011;3995;50.856;4.404;2023-03-05T02:53:53;7.43;;;3.10;;
7899;SDS011;3995;50.856;4.404;2023-03-05T02:56:22;5.80;;;3.10;;
7899;SDS011;3995;50.856;4.404;2023-03-05T02:58:49;6.88;;;3.90;;
7899;SDS011;3995;50.856;4.404;2023-03-05T03:01:16;4.68;;;3.45;;
7899;SDS011;3995;50.856;4.404;2023-03-05T03:03:43;4.90;;;2.90;;
7899;SDS011;3995;50.856;4.404;2023-03-05T03:06:10;5.38;;;2.80;;
7899;SDS011;3995;50.856;4.404;2023-03-05T03:08:38;4.63;;;3.15;;
7899;SDS011;3995;50.856;4.404;2023-03-05T03:11:06;5.40;;;3.17;;
7899;SDS011;3995;50.856;4.404;2023-03-05T03:13:36;10.25;;;3.97;;
7899;SDS011;3995;50.856;4.404;2023-03-05T03:16:04;14.05;;;2.58;;
7899;SDS011;3995;50.856;4.404;2023-03-05T03:18:32;6.53;;;3.13;;
7899;SDS011;3995;50.856;4.404;2023-03-05T03:21:00;3.33;;;2.55;;
7899;SDS011;3995;50.856;4.404;2023-03-05T03:23:27;4.28;;;2.90;;
7899;SDS011;3995;50.856;4.404;2023-03-05T03:25:54;3.40;;;2.60;;
7899;SDS011;3995;50.856;4.404;2023-03-05T03:28:23;3.00;;;2.70;;
7899;SDS011;3995;50.856;4.404;2023-03-05T03:30:51;3.92;;;2.60;;
7899;SDS011;3995;50.856;4.404;2023-03-05T03:33:19;7.45;;;3.53;;
7899;SDS011;3995;50.856;4.404;2023-03-05T03:35:46;4.20;;;2.63;;
7899;SDS011;3995;50.856;4.404;2023-03-05T03:38:14;5.07;;;2.72;;
7899;SDS011;3995;50.856;4.404;2023-03-05T03:40:41;6.15;;;2.50;;
7899;SDS011;3995;50.856;4.404;2023-03-05T03:43:08;4.85;;;2.33;;
7899;SDS011;3995;50.856;4.404;2023-03-05T03:45:38;4.63;;;2.65;;
7899;SDS011;3995;50.856;4.404;2023-03-05T03:48:08;2.97;;;2.30;;
7899;SDS011;3995;50.856;4.404;2023-03-05T03:50:37;7.03;;;2.30;;
7899;SDS011;3995;50.856;4.404;2023-03-05T03:53:04;7.72;;;2.75;;
7899;SDS011;3995;50.856;4.404;2023-03-05T03:55:31;5.07;;;2.58;;
7899;SDS011;3995;50.856;4.404;2023-03-05T03:57:59;4.43;;;2.85;;
7899;SDS011;3995;50.856;4.404;2023-03-05T04:00:27;7.72;;;2.75;;
7899;SDS011;3995;50.856;4.404;2023-03-05T04:02:54;4.70;;;2.00;;
7899;SDS011;3995;50.856;4.404;2023-03-05T04:05:23;5.88;;;2.72;;
7899;SDS011;3995;50.856;4.404;2023-03-05T04:07:50;4.75;;;2.60;;
7899;SDS011;3995;50.856;4.404;2023-03-05T04:10:18;4.45;;;2.70;;
7899;SDS011;3995;50.856;4.404;2023-03-05T04:12:45;4.43;;;2.47;;
7899;SDS011;3995;50.856;4.404;2023-03-05T04:15:13;4.40;;;2.67;;
7899;SDS011;3995;50.856;4.404;2023-03-05T04:17:40;3.53;;;2.30;;
7899;SDS011;3995;50.856;4.404;2023-03-05T04:20:08;4.47;;;2.70;;
7899;SDS011;3995;50.856;4.404;2023-03-05T04:22:38;4.90;;;2.55;;
7899;SDS011;3995;50.856;4.404;2023-03-05T04:25:06;6.57;;;2.90;;
7899;SDS011;3995;50.856;4.404;2023-03-05T04:27:34;3.70;;;2.60;;
7899;SDS011;3995;50.856;4.404;2023-03-05T04:30:01;3.80;;;2.30;;
7899;SDS011;3995;50.856;4.404;2023-03-05T04:32:29;4.93;;;2.70;;
7899;SDS011;3995;50.856;4.404;2023-03-05T04:34:56;6.25;;;2.42;;
7899;SDS011;3995;50.856;4.404;2023-03-05T04:37:24;9.35;;;3.17;;
7899;SDS011;3995;50.856;4.404;2023-03-05T04:39:53;4.75;;;2.78;;
7899;SDS011;3995;50.856;4.404;2023-03-05T04:42:21;3.50;;;2.63;;
7899;SDS011;3995;50.856;4.404;2023-03-05T04:44:48;3.35;;;2.80;;
7899;SDS011;3995;50.856;4.404;2023-03-05T04:47:16;4.25;;;2.97;;
7899;SDS011;3995;50.856;4.404;2023-03-05T04:49:44;9.20;;;3.45;;
7899;SDS011;3995;50.856;4.404;2023-03-05T04:52:12;8.25;;;3.83;;
7899;SDS011;3995;50.856;4.404;2023-03-05T04:54:40;5.15;;;3.70;;
7899;SDS011;3995;50.856;4.404;2023-03-05T04:57:09;9.60;;;3.45;;
7899;SDS011;3995;50.856;4.404;2023-03-05T04:59:36;6.63;;;3.08;;
7899;SDS011;3995;50.856;4.404;2023-03-05T05:02:04;8.45;;;3.75;;
7899;SDS011;3995;50.856;4.404;2023-03-05T05:04:32;4.97;;;2.65;;
7899;SDS011;3995;50.856;4.404;2023-03-05T05:07:00;5.72;;;3.33;;
7899;SDS011;3995;50.856;4.404;2023-03-05T05:09:27;6.53;;;3.63;;
7899;SDS011;3995;50.856;4.404;2023-03-05T05:11:54;4.57;;;3.58;;
7899;SDS011;3995;50.856;4.404;2023-03-05T05:14:22;4.20;;;3.13;;
7899;SDS011;3995;50.856;4.404;2023-03-05T05:16:49;6.75;;;3.67;;
7899;SDS011;3995;50.856;4.404;2023-03-05T05:19:16;5.18;;;3.45;;
7899;SDS011;3995;50.856;4.404;2023-03-05T05:21:43;5.32;;;3.70;;
7899;SDS011;3995;50.856;4.404;2023-03-05T05:24:11;4.18;;;3.08;;
7899;SDS011;3995;50.856;4.404;2023-03-05T05:26:38;5.18;;;3.58;;
7899;SDS011;3995;50.856;4.404;2023-03-05T05:29:05;5.85;;;4.15;;
7899;SDS011;3995;50.856;4.404;2023-03-05T05:31:33;6.55;;;4.57;;
7899;SDS011;3995;50.856;4.404;2023-03-05T05:34:00;4.88;;;3.65;;
7899;SDS011;3995;50.856;4.404;2023-03-05T05:36:28;5.93;;;4.30;;
7899;SDS011;3995;50.856;4.404;2023-03-05T05:38:55;8.32;;;4.40;;
7899;SDS011;3995;50.856;4.404;2023-03-05T05:41:22;4.60;;;4.07;;
7899;SDS011;3995;50.856;4.404;2023-03-05T05:43:49;7.70;;;4.15;;
7899;SDS011;3995;50.856;4.404;2023-03-05T05:46:18;6.45;;;4.90;;
7899;SDS011;3995;50.856;4.404;2023-03-05T05:48:47;5.57;;;4.50;;
7899;SDS011;3995;50.856;4.404;2023-03-05T05:51:16;8.18;;;5.00;;
7899;SDS011;3995;50.856;4.404;2023-03-05T05:53:45;5.20;;;4.43;;
7899;SDS011;3995;50.856;4.404;2023-03-05T05:56:13;6.20;;;4.93;;
7899;SDS011;3995;50.856;4.404;2023-03-05T05:58:41;4.53;;;4.07;;
7899;SDS011;3995;50.856;4.404;2023-03-05T06:01:12;8.98;;;4.57;;
7899;SDS011;3995;50.856;4.404;2023-03-05T06:03:40;3.45;;;3.08;;
7899;SDS011;3995;50.856;4.404;2023-03-05T06:06:10;6.57;;;3.70;;
7899;SDS011;3995;50.856;4.404;2023-03-05T06:08:39;6.22;;;3.97;;
7899;SDS011;3995;50.856;4.404;2023-03-05T06:11:06;6.45;;;3.97;;
7899;SDS011;3995;50.856;4.404;2023-03-05T06:13:34;10.05;;;4.38;;
7899;SDS011;3995;50.856;4.404;2023-03-05T06:16:02;7.68;;;4.00;;
7899;SDS011;3995;50.856;4.404;2023-03-05T06:18:31;5.38;;;4.32;;
7899;SDS011;3995;50.856;4.404;2023-03-05T06:20:59;7.20;;;4.28;;
7899;SDS011;3995;50.856;4.404;2023-03-05T06:23:30;5.00;;;4.32;;
7899;SDS011;3995;50.856;4.404;2023-03-05T06:25:58;8.20;;;5.20;;
7899;SDS011;3995;50.856;4.404;2023-03-05T06:28:25;4.97;;;4.45;;
7899;SDS011;3995;50.856;4.404;2023-03-05T06:31:00;8.30;;;5.05;;
7899;SDS011;3995;50.856;4.404;2023-03-05T06:33:28;5.55;;;4.03;;
7899;SDS011;3995;50.856;4.404;2023-03-05T06:35:56;6.75;;;5.32;;
7899;SDS011;3995;50.856;4.404;2023-03-05T06:38:23;7.47;;;5.13;;
7899;SDS011;3995;50.856;4.404;2023-03-05T06:40:52;6.15;;;4.60;;
7899;SDS011;3995;50.856;4.404;2023-03-05T06:43:20;7.85;;;5.80;;
7899;SDS011;3995;50.856;4.404;2023-03-05T06:45:47;10.38;;;4.97;;
7899;SDS011;3995;50.856;4.404;2023-03-05T06:48:14;6.78;;;4.65;;
7899;SDS011;3995;50.856;4.404;2023-03-05T06:50:42;7.68;;;5.15;;
7899;SDS011;3995;50.856;4.404;2023-03-05T06:53:09;4.97;;;4.50;;
7899;SDS011;3995;50.856;4.404;2023-03-05T06:55:36;5.75;;;4.07;;
7899;SDS011;3995;50.856;4.404;2023-03-05T06:58:06;4.95;;;4.05;;
7899;SDS011;3995;50.856;4.404;2023-03-05T07:00:33;6.88;;;5.15;;
7899;SDS011;3995;50.856;4.404;2023-03-05T07:03:00;5.88;;;4.15;;
7899;SDS011;3995;50.856;4.404;2023-03-05T07:05:28;5.57;;;4.13;;
7899;SDS011;3995;50.856;4.404;2023-03-05T07:07:55;4.82;;;3.90;;
7899;SDS011;3995;50.856;4.404;2023-03-05T07:10:22;5.15;;;4.65;;
7899;SDS011;3995;50.856;4.404;2023-03-05T07:12:49;4.90;;;4.13;;
7899;SDS011;3995;50.856;4.404;2023-03-05T07:15:18;5.93;;;4.82;;
7899;SDS011;3995;50.856;4.404;2023-03-05T07:17:45;4.95;;;4.18;;
7899;SDS011;3995;50.856;4.404;2023-03-05T07:20:13;6.40;;;4.10;;
7899;SDS011;3995;50.856;4.404;2023-03-05T07:22:40;6.53;;;4.97;;
7899;SDS011;3995;50.856;4.404;2023-03-05T07:25:08;7.50;;;4.95;;
7899;SDS011;3995;50.856;4.404;2023-03-05T07:27:35;5.18;;;3.97;;
7899;SDS011;3995;50.856;4.404;2023-03-05T07:30:03;7.43;;;4.35;;
7899;SDS011;3995;50.856;4.404;2023-03-05T07:32:33;8.40;;;4.57;;
7899;SDS011;3995;50.856;4.404;2023-03-05T07:35:01;6.32;;;4.25;;
7899;SDS011;3995;50.856;4.404;2023-03-05T07:37:28;6.85;;;4.32;;
7899;SDS011;3995;50.856;4.404;2023-03-05T07:39:55;6.10;;;4.28;;
7899;SDS011;3995;50.856;4.404;2023-03-05T07:42:23;6.72;;;5.00;;
7899;SDS011;3995;50.856;4.404;2023-03-05T07:44:50;6.53;;;4.70;;
7899;SDS011;3995;50.856;4.404;2023-03-05T07:47:17;4.05;;;3.60;;
7899;SDS011;3995;50.856;4.404;2023-03-05T07:49:46;5.40;;;3.97;;
7899;SDS011;3995;50.856;4.404;2023-03-05T07:52:14;4.60;;;3.65;;
7899;SDS011;3995;50.856;4.404;2023-03-05T07:54:43;4.40;;;4.00;;
7899;SDS011;3995;50.856;4.404;2023-03-05T07:57:11;4.30;;;3.90;;
7899;SDS011;3995;50.856;4.404;2023-03-05T07:59:56;4.10;;;3.40;;
7899;SDS011;3995;50.856;4.404;2023-03-05T08:02:26;5.20;;;4.65;;
7899;SDS011;3995;50.856;4.404;2023-03-05T08:04:56;4.65;;;4.25;;
7899;SDS011;3995;50.856;4.404;2023-03-05T08:07:26;4.53;;;3.75;;
7899;SDS011;3995;50.856;4.404;2023-03-05T08:09:53;3.70;;;3.40;;
7899;SDS011;3995;50.856;4.404;2023-03-05T08:12:21;5.10;;;3.10;;
7899;SDS011;3995;50.856;4.404;2023-03-05T08:14:48;4.75;;;3.70;;
7899;SDS011;3995;50.856;4.404;2023-03-05T08:17:16;4.03;;;3.15;;
7899;SDS011;3995;50.856;4.404;2023-03-05T08:19:43;4.32;;;3.50;;
7899;SDS011;3995;50.856;4.404;2023-03-05T08:22:12;3.92;;;3.58;;
7899;SDS011;3995;50.856;4.404;2023-03-05T08:24:40;4.22;;;2.88;;
7899;SDS011;3995;50.856;4.404;2023-03-05T08:27:07;3.67;;;3.38;;
7899;SDS011;3995;50.856;4.404;2023-03-05T08:29:35;3.90;;;3.40;;
7899;SDS011;3995;50.856;4.404;2023-03-05T08:32:02;3.40;;;3.05;;
7899;SDS011;3995;50.856;4.404;2023-03-05T08:34:30;4.15;;;3.80;;
7899;SDS011;3995;50.856;4.404;2023-03-05T08:36:58;4.57;;;2.90;;
7899;SDS011;3995;50.856;4.404;2023-03-05T08:39:27;3.22;;;2.60;;
7899;SDS011;3995;50.856;4.404;2023-03-05T08:41:55;3.40;;;3.10;;
7899;SDS011;3995;50.856;4.404;2023-03-05T08:44:22;3.35;;;2.70;;
7899;SDS011;3995;50.856;4.404;2023-03-05T08:46:49;3.22;;;2.95;;
7899;SDS011;3995;50.856;4.404;2023-03-05T08:49:16;3.85;;;2.95;;
7899;SDS011;3995;50.856;4.404;2023-03-05T08:51:43;3.55;;;2.80;;
7899;SDS011;3995;50.856;4.404;2023-03-05T08:54:11;3.42;;;3.13;;
7899;SDS011;3995;50.856;4.404;2023-03-05T08:56:40;5.53;;;2.45;;
7899;SDS011;3995;50.856;4.404;2023-03-05T08:59:07;6.05;;;2.80;;
7899;SDS011;3995;50.856;4.404;2023-03-05T09:01:35;7.68;;;4.45;;
7899;SDS011;3995;50.856;4.404;2023-03-05T09:04:02;5.85;;;3.20;;
7899;SDS011;3995;50.856;4.404;2023-03-05T09:06:30;4.88;;;3.38;;
7899;SDS011;3995;50.856;4.404;2023-03-05T09:08:58;2.95;;;2.67;;
7899;SDS011;3995;50.856;4.404;2023-03-05T09:11:25;3.88;;;3.13;;
7899;SDS011;3995;50.856;4.404;2023-03-05T09:13:54;2.97;;;2.70;;
7899;SDS011;3995;50.856;4.404;2023-03-05T09:16:21;5.10;;;3.50;;
7899;SDS011;3995;50.856;4.404;2023-03-05T09:18:49;3.33;;;3.05;;
7899;SDS011;3995;50.856;4.404;2023-03-05T09:21:16;3.88;;;2.67;;
7899;SDS011;3995;50.856;4.404;2023-03-05T09:23:44;3.10;;;2.80;;
7899;SDS011;3995;50.856;4.404;2023-03-05T09:26:12;3.72;;;3.42;;
7899;SDS011;3995;50.856;4.404;2023-03-05T09:28:43;3.67;;;3.38;;
7899;SDS011;3995;50.856;4.404;2023-03-05T09:31:13;4.20;;;3.90;;
7899;SDS011;3995;50.856;4.404;2023-03-05T09:33:40;5.45;;;4.32;;
7899;SDS011;3995;50.856;4.404;2023-03-05T09:36:15;3.75;;;3.42;;
7899;SDS011;3995;50.856;4.404;2023-03-05T09:38:44;3.97;;;3.55;;
7899;SDS011;3995;50.856;4.404;2023-03-05T09:41:14;4.35;;;3.70;;
7899;SDS011;3995;50.856;4.404;2023-03-05T09:43:47;3.40;;;3.10;;
7899;SDS011;3995;50.856;4.404;2023-03-05T09:46:29;3.20;;;2.90;;
7899;SDS011;3995;50.856;4.404;2023-03-05T09:49:10;4.80;;;3.35;;
7899;SDS011;3995;50.856;4.404;2023-03-05T09:51:43;4.63;;;3.20;;
7899;SDS011;3995;50.856;4.404;2023-03-05T09:54:14;3.20;;;2.78;;
7899;SDS011;3995;50.856;4.404;2023-03-05T09:56:46;4.68;;;3.17;;
7899;SDS011;3995;50.856;4.404;2023-03-05T09:59:22;3.47;;;2.63;;
7899;SDS011;3995;50.856;4.404;2023-03-05T10:01:58;3.20;;;2.90;;
7899;SDS011;3995;50.856;4.404;2023-03-05T10:04:31;2.58;;;2.38;;
7899;SDS011;3995;50.856;4.404;2023-03-05T10:07:11;2.80;;;2.53;;
7899;SDS011;3995;50.856;4.404;2023-03-05T10:09:43;3.42;;;2.80;;
7899;SDS011;3995;50.856;4.404;2023-03-05T10:12:17;2.25;;;2.05;;
7899;SDS011;3995;50.856;4.404;2023-03-05T10:14:52;5.60;;;2.83;;
7899;SDS011;3995;50.856;4.404;2023-03-05T10:20:29;2.38;;;2.17;;
7899;SDS011;3995;50.856;4.404;2023-03-05T10:23:20;3.15;;;2.58;;
7899;SDS011;3995;50.856;4.404;2023-03-05T10:26:07;4.15;;;2.90;;
7899;SDS011;3995;50.856;4.404;2023-03-05T10:28:47;7.10;;;3.50;;
7899;SDS011;3995;50.856;4.404;2023-03-05T10:31:26;7.43;;;3.45;;
7899;SDS011;3995;50.856;4.404;2023-03-05T10:34:11;3.33;;;3.00;;
7899;SDS011;3995;50.856;4.404;2023-03-05T10:37:02;3.17;;;2.97;;
7899;SDS011;3995;50.856;4.404;2023-03-05T10:39:58;2.60;;;2.40;;
7899;SDS011;3995;50.856;4.404;2023-03-05T10:42:35;2.45;;;2.25;;
7899;SDS011;3995;50.856;4.404;2023-03-05T10:45:11;2.33;;;2.03;;
7899;SDS011;3995;50.856;4.404;2023-03-05T10:47:42;1.73;;;1.63;;
7899;SDS011;3995;50.856;4.404;2023-03-05T10:50:16;1.98;;;1.80;;
7899;SDS011;3995;50.856;4.404;2023-03-05T10:52:45;2.22;;;1.58;;
7899;SDS011;3995;50.856;4.404;2023-03-05T10:55:18;1.95;;;1.70;;
7899;SDS011;3995;50.856;4.404;2023-03-05T10:57:47;2.42;;;2.22;;
7899;SDS011;3995;50.856;4.404;2023-03-05T11:00:18;1.98;;;1.88;;
7899;SDS011;3995;50.856;4.404;2023-03-05T11:02:57;2.40;;;2.20;;
7899;SDS011;3995;50.856;4.404;2023-03-05T11:08:25;3.83;;;3.53;;
7899;SDS011;3995;50.856;4.404;2023-03-05T11:11:11;3.42;;;3.13;;
7899;SDS011;3995;50.856;4.404;2023-03-05T11:13:52;3.80;;;3.15;;
7899;SDS011;3995;50.856;4.404;2023-03-05T11:16:22;3.50;;;3.20;;
7899;SDS011;3995;50.856;4.404;2023-03-05T11:19:10;4.28;;;3.88;;
7899;SDS011;3995;50.856;4.404;2023-03-05T11:22:03;2.70;;;2.45;;
7899;SDS011;3995;50.856;4.404;2023-03-05T11:24:35;4.13;;;2.72;;
7899;SDS011;3995;50.856;4.404;2023-03-05T11:27:19;3.75;;;2.70;;
7899;SDS011;3995;50.856;4.404;2023-03-05T11:29:48;3.60;;;2.88;;
7899;SDS011;3995;50.856;4.404;2023-03-05T11:32:18;3.65;;;2.97;;
7899;SDS011;3995;50.856;4.404;2023-03-05T11:34:47;2.75;;;2.55;;
7899;SDS011;3995;50.856;4.404;2023-03-05T11:37:20;2.50;;;2.30;;
7899;SDS011;3995;50.856;4.404;2023-03-05T11:40:04;4.25;;;2.50;;
7899;SDS011;3995;50.856;4.404;2023-03-05T11:42:42;3.42;;;2.17;;
7899;SDS011;3995;50.856;4.404;2023-03-05T11:45:13;2.75;;;2.42;;
7899;SDS011;3995;50.856;4.404;2023-03-05T11:47:43;2.58;;;2.00;;
7899;SDS011;3995;50.856;4.404;2023-03-05T11:50:17;2.85;;;2.10;;
7899;SDS011;3995;50.856;4.404;2023-03-05T11:52:48;4.63;;;2.65;;
7899;SDS011;3995;50.856;4.404;2023-03-05T11:55:18;2.85;;;1.95;;
7899;SDS011;3995;50.856;4.404;2023-03-05T11:57:52;3.65;;;2.10;;
7899;SDS011;3995;50.856;4.404;2023-03-05T12:00:29;3.97;;;2.80;;
7899;SDS011;3995;50.856;4.404;2023-03-05T12:02:58;8.93;;;2.72;;
7899;SDS011;3995;50.856;4.404;2023-03-05T12:05:29;3.97;;;2.70;;
7899;SDS011;3995;50.856;4.404;2023-03-05T12:08:00;5.10;;;3.40;;
7899;SDS011;3995;50.856;4.404;2023-03-05T12:10:29;7.57;;;2.92;;
7899;SDS011;3995;50.856;4.404;2023-03-05T12:12:58;5.47;;;4.05;;
7899;SDS011;3995;50.856;4.404;2023-03-05T12:18:31;4.75;;;3.47;;
7899;SDS011;3995;50.856;4.404;2023-03-05T12:21:13;3.75;;;3.08;;
7899;SDS011;3995;50.856;4.404;2023-03-05T12:23:44;6.72;;;6.05;;
7899;SDS011;3995;50.856;4.404;2023-03-05T12:26:13;5.45;;;4.47;;
7899;SDS011;3995;50.856;4.404;2023-03-05T12:28:56;6.80;;;3.97;;
7899;SDS011;3995;50.856;4.404;2023-03-05T12:31:36;9.80;;;5.65;;
7899;SDS011;3995;50.856;4.404;2023-03-05T12:40:23;4.13;;;3.83;;
7899;SDS011;3995;50.856;4.404;2023-03-05T12:42:54;4.00;;;3.70;;
7899;SDS011;3995;50.856;4.404;2023-03-05T12:45:27;4.85;;;4.40;;
7899;SDS011;3995;50.856;4.404;2023-03-05T12:51:12;5.15;;;3.90;;
7899;SDS011;3995;50.856;4.404;2023-03-05T12:53:52;4.45;;;4.05;;
7899;SDS011;3995;50.856;4.404;2023-03-05T12:56:21;3.70;;;3.40;;
7899;SDS011;3995;50.856;4.404;2023-03-05T12:58:54;4.60;;;2.90;;
7899;SDS011;3995;50.856;4.404;2023-03-05T13:01:35;4.22;;;3.83;;
7899;SDS011;3995;50.856;4.404;2023-03-05T13:04:11;4.22;;;3.10;;
7899;SDS011;3995;50.856;4.404;2023-03-05T13:06:45;4.93;;;3.25;;
7899;SDS011;3995;50.856;4.404;2023-03-05T13:09:23;3.28;;;2.97;;
7899;SDS011;3995;50.856;4.404;2023-03-05T13:11:53;3.00;;;2.40;;
7899;SDS011;3995;50.856;4.404;2023-03-05T13:14:27;3.88;;;1.70;;
7899;SDS011;3995;50.856;4.404;2023-03-05T13:16:57;2.67;;;1.50;;
7899;SDS011;3995;50.856;4.404;2023-03-05T13:19:25;3.95;;;2.35;;
7899;SDS011;3995;50.856;4.404;2023-03-05T13:21:57;2.47;;;2.28;;
7899;SDS011;3995;50.856;4.404;2023-03-05T13:24:26;2.45;;;1.77;;
7899;SDS011;3995;50.856;4.404;2023-03-05T13:26:55;2.20;;;1.60;;
7899;SDS011;3995;50.856;4.404;2023-03-05T13:29:24;2.78;;;1.60;;
7899;SDS011;3995;50.856;4.404;2023-03-05T13:31:55;1.60;;;1.08;;
7899;SDS011;3995;50.856;4.404;2023-03-05T13:34:25;1.75;;;1.65;;
7899;SDS011;3995;50.856;4.404;2023-03-05T13:36:55;1.40;;;1.30;;
7899;SDS011;3995;50.856;4.404;2023-03-05T13:39:25;4.47;;;2.45;;
7899;SDS011;3995;50.856;4.404;2023-03-05T13:42:01;2.55;;;1.58;;
7899;SDS011;3995;50.856;4.404;2023-03-05T13:44:31;1.23;;;0.90;;
7899;SDS011;3995;50.856;4.404;2023-03-05T13:47:11;3.15;;;1.67;;
7899;SDS011;3995;50.856;4.404;2023-03-05T13:49:42;2.95;;;1.50;;
7899;SDS011;3995;50.856;4.404;2023-03-05T13:52:11;1.20;;;1.10;;
7899;SDS011;3995;50.856;4.404;2023-03-05T13:54:48;1.20;;;1.10;;
7899;SDS011;3995;50.856;4.404;2023-03-05T14:02:59;1.65;;;1.38;;
7899;SDS011;3995;50.856;4.404;2023-03-05T14:05:33;1.30;;;1.20;;
7899;SDS011;3995;50.856;4.404;2023-03-05T14:08:02;3.55;;;1.55;;
7899;SDS011;3995;50.856;4.404;2023-03-05T14:10:31;1.65;;;1.50;;
7899;SDS011;3995;50.856;4.404;2023-03-05T14:13:00;1.50;;;1.40;;
7899;SDS011;3995;50.856;4.404;2023-03-05T14:15:32;2.75;;;1.65;;
7899;SDS011;3995;50.856;4.404;2023-03-05T14:18:12;1.75;;;1.65;;
7899;SDS011;3995;50.856;4.404;2023-03-05T14:20:56;1.50;;;1.30;;
7899;SDS011;3995;50.856;4.404;2023-03-05T14:23:29;2.78;;;1.40;;
7899;SDS011;3995;50.856;4.404;2023-03-05T14:26:25;1.27;;;1.17;;
7899;SDS011;3995;50.856;4.404;2023-03-05T14:29:11;1.85;;;1.40;;
7899;SDS011;3995;50.856;4.404;2023-03-05T14:31:58;2.63;;;1.40;;
7899;SDS011;3995;50.856;4.404;2023-03-05T14:34:31;1.27;;;1.02;;
7899;SDS011;3995;50.856;4.404;2023-03-05T14:37:01;1.25;;;1.15;;
7899;SDS011;3995;50.856;4.404;2023-03-05T14:39:37;4.60;;;1.45;;
7899;SDS011;3995;50.856;4.404;2023-03-05T14:42:28;1.30;;;1.20;;
7899;SDS011;3995;50.856;4.404;2023-03-05T14:44:57;0.85;;;0.80;;
7899;SDS011;3995;50.856;4.404;2023-03-05T14:47:28;1.80;;;1.10;;
7899;SDS011;3995;50.856;4.404;2023-03-05T14:49:55;1.65;;;1.00;;
7899;SDS011;3995;50.856;4.404;2023-03-05T14:52:23;2.10;;;1.45;;
7899;SDS011;3995;50.856;4.404;2023-03-05T14:54:51;5.22;;;2.20;;
7899;SDS011;3995;50.856;4.404;2023-03-05T14:57:20;5.43;;;1.80;;
7899;SDS011;3995;50.856;4.404;2023-03-05T14:59:50;1.60;;;1.20;;
7899;SDS011;3995;50.856;4.404;2023-03-05T15:02:19;2.65;;;1.50;;
7899;SDS011;3995;50.856;4.404;2023-03-05T15:04:48;1.70;;;1.20;;
7899;SDS011;3995;50.856;4.404;2023-03-05T15:07:17;2.92;;;1.60;;
7899;SDS011;3995;50.856;4.404;2023-03-05T15:09:47;2.38;;;1.23;;
7899;SDS011;3995;50.856;4.404;2023-03-05T15:12:14;2.38;;;1.80;;
7899;SDS011;3995;50.856;4.404;2023-03-05T15:14:42;3.22;;;1.48;;
7899;SDS011;3995;50.856;4.404;2023-03-05T15:17:12;1.60;;;1.50;;
7899;SDS011;3995;50.856;4.404;2023-03-05T15:19:44;2.30;;;1.58;;
7899;SDS011;3995;50.856;4.404;2023-03-05T15:22:13;3.15;;;1.65;;
7899;SDS011;3995;50.856;4.404;2023-03-05T15:24:41;2.90;;;1.65;;
7899;SDS011;3995;50.856;4.404;2023-03-05T15:27:09;2.95;;;2.00;;
7899;SDS011;3995;50.856;4.404;2023-03-05T15:29:38;2.58;;;2.00;;
7899;SDS011;3995;50.856;4.404;2023-03-05T15:32:06;4.53;;;1.88;;
7899;SDS011;3995;50.856;4.404;2023-03-05T15:34:33;3.45;;;2.30;;
7899;SDS011;3995;50.856;4.404;2023-03-05T15:37:01;3.95;;;1.90;;
7899;SDS011;3995;50.856;4.404;2023-03-05T15:39:31;7.47;;;2.50;;
7899;SDS011;3995;50.856;4.404;2023-03-05T15:41:58;12.40;;;7.13;;
7899;SDS011;3995;50.856;4.404;2023-03-05T15:44:26;5.97;;;2.30;;
7899;SDS011;3995;50.856;4.404;2023-03-05T15:46:53;3.72;;;2.10;;
7899;SDS011;3995;50.856;4.404;2023-03-05T15:49:21;2.85;;;2.20;;
7899;SDS011;3995;50.856;4.404;2023-03-05T15:51:50;3.75;;;2.03;;
7899;SDS011;3995;50.856;4.404;2023-03-05T15:54:19;1.88;;;1.45;;
7899;SDS011;3995;50.856;4.404;2023-03-05T15:56:47;3.47;;;2.03;;